This is the latest recevied weather packets stored in our database for station/object DG3RAP-11. If no packets are shown the sender has not sent any weather packets the latest 1 day(s).
| Time | Temp. | Humidity | Pressure | Rain* | Wind** | Luminosity | Snow |
|---|---|---|---|---|---|---|---|
| 1777974303 | 22.22° C | 45% | 1007.7 hPa | 0 mm | 0.89 m/s, 269° | - | - |
| 1777973763 | 22.22° C | 48% | 1007.7 hPa | 0 mm | 0.89 m/s, 282° | - | - |
| 1777973223 | 21.67° C | 49% | 1007.6 hPa | 0 mm | 1.34 m/s, 274° | - | - |
| 1777972683 | 21.67° C | 50% | 1007.7 hPa | 0 mm | 0.45 m/s, 279° | - | - |
| 1777972143 | 21.67° C | 50% | 1007.8 hPa | 0 mm | 0.89 m/s, 298° | - | - |
| 1777971603 | 21.11° C | 52% | 1008.1 hPa | 0 mm | 1.34 m/s, 301° | - | - |
| 1777971243 | 21.11° C | 53% | 1007.9 hPa | 0 mm | 0.45 m/s, 66° | - | - |
| 1777970703 | 20° C | 55% | 1007.9 hPa | 0 mm | 0 m/s | - | - |
| 1777970163 | 20° C | 56% | 1008 hPa | 0 mm | 1.34 m/s, 85° | - | - |
| 1777969623 | 18.89° C | 57% | 1007.9 hPa | 0 mm | 1.34 m/s, 45° | - | - |
| 1777969083 | 20° C | 56% | 1007.9 hPa | 0 mm | 0.89 m/s, 48° | - | - |
| 1777968543 | 19.44° C | 59% | 1008.3 hPa | 0 mm | 0.89 m/s, 65° | - | - |
| 1777968003 | 20° C | 57% | 1008.1 hPa | 0 mm | 0.45 m/s, 41° | - | - |
| 1777967643 | 18.89° C | 60% | 1008 hPa | 0 mm | 0.89 m/s, 31° | - | - |
| 1777967103 | 17.78° C | 66% | 1008.4 hPa | 0 mm | 1.34 m/s, 55° | - | - |
| 1777966563 | 18.33° C | 64% | 1008.4 hPa | 0 mm | 0.45 m/s, 20° | - | - |
| 1777966023 | 19.44° C | 60% | 1008.6 hPa | 0 mm | 0.45 m/s, 345° | - | - |
| 1777965483 | 18.33° C | 65% | 1008.5 hPa | 0 mm | 0.45 m/s, 279° | - | - |
| 1777964943 | 17.78° C | 65% | 1008.5 hPa | 0 mm | 0.89 m/s, 277° | - | - |
| 1777964403 | 18.33° C | 63% | 1008.5 hPa | 0 mm | 0.89 m/s, 278° | - | - |
| 1777964043 | 17.78° C | 65% | 1008.6 hPa | 0 mm | 1.34 m/s, 285° | - | - |
| 1777963503 | 18.33° C | 63% | 1008.6 hPa | 0 mm | 0 m/s | - | - |
| 1777962963 | 16.67° C | 68% | 1008.5 hPa | 0 mm | 0.89 m/s, 316° | - | - |
| 1777962423 | 17.78° C | 64% | 1008.6 hPa | 0 mm | 0 m/s | - | - |
| 1777961883 | 16.11° C | 68% | 1008.8 hPa | 0 mm | 0.45 m/s, 10° | - | - |
* Rain latest hour (hover to see other rain measurements)
** Current wind speed in m/s (hover to see current wind gust speed)